Estación de Polizones INIA

Ultimos registro cada 15 minutos 33
Estación Fecha / Hora Temperatura Humedad Lluvia Velocidad Dirección Radiación Presion
33 Polizones INIA 02-09-2026 08:00 4,6 99 0 0 0 21,7 997
32 Polizones INIA 02-09-2026 07:45 4,4 98,8 0 0 0 6,5 997
31 Polizones INIA 02-09-2026 07:30 4,2 98,8 0 0 0 2,9 997
30 Polizones INIA 02-09-2026 07:15 3,9 98,8 0 0 0 0,5 997
29 Polizones INIA 02-09-2026 07:00 3,7 98,8 0 0 0 0,1 997
28 Polizones INIA 02-09-2026 06:45 3,8 98,4 0 0 0 0 997
27 Polizones INIA 02-09-2026 06:30 3,4 99 0 0 0 0 996
26 Polizones INIA 02-09-2026 06:15 3,8 97,2 0 0 35 0 996
25 Polizones INIA 02-09-2026 06:00 3,7 98,1 0 0 0 0 996
24 Polizones INIA 02-09-2026 05:45 4,3 97,9 0 0 0 0 996
23 Polizones INIA 02-09-2026 05:30 4,4 98,4 0 0,5 24 0 996
22 Polizones INIA 02-09-2026 05:15 4,4 98,3 0 0,1 31 0 995
21 Polizones INIA 02-09-2026 05:00 4,7 98 0 0 0 0 996
20 Polizones INIA 02-09-2026 04:45 5,2 98,2 0 0 0 0 995
19 Polizones INIA 02-09-2026 04:30 5,6 97,8 0 0 0 0 995
18 Polizones INIA 02-09-2026 04:15 6 97,7 0 0 0 0 996
17 Polizones INIA 02-09-2026 04:00 5,8 98,1 0 0 0 0 995
16 Polizones INIA 02-09-2026 03:45 6 97,5 0,1 0 0 0 995
15 Polizones INIA 02-09-2026 03:30 6,4 98,1 0 0 0 0 996
14 Polizones INIA 02-09-2026 03:15 6,8 97,8 0 0 0 0 996
13 Polizones INIA 02-09-2026 03:00 7,4 97,6 0 0 0 0 996
12 Polizones INIA 02-09-2026 02:45 7,9 97 0 0,6 301 0 996
11 Polizones INIA 02-09-2026 02:30 8 97,3 0 0,1 321 0 996
10 Polizones INIA 02-09-2026 02:15 8 97,2 0 0,2 331 0 995
9 Polizones INIA 02-09-2026 02:00 8,1 97,1 0 0 0 0 995
8 Polizones INIA 02-09-2026 01:45 8,1 97 0 0,1 338 0 995
7 Polizones INIA 02-09-2026 01:30 8,1 96,8 0 0,6 328 0 996
6 Polizones INIA 02-09-2026 01:15 8,1 96,8 0 0,5 301 0 996
5 Polizones INIA 02-09-2026 01:00 8,1 96,7 0 1 317 0 996
4 Polizones INIA 02-09-2026 00:45 8,1 96,5 0 1 330 0 996
3 Polizones INIA 02-09-2026 00:30 8 96,3 0 1,1 331 0 996
2 Polizones INIA 02-09-2026 00:15 8 96,2 0,1 1,1 331 0 996
1 Polizones INIA 02-09-2026 00:00 8 96 0,1 0,5 337 0 996